Time;durP1;ratioP1;P1;durP2;ratioP2;P2;SDS_P1;SDS_P2;PMS_P1;PMS_P2;Temp;Humidity;BMP_temperature;BMP_pressure;BME280_temperature;BME280_humidity;BME280_pressure;Samples;Min_cycle;Max_cycle;Signal;HPM_P1;HPM_P2
2022/08/04 00:00:15;;;;;;;0.40;0.40;;;22.10;54.40;;;22.73;39.65;95121.56;5089054;28;20186;-78
2022/08/04 00:03:18;;;;;;;0.40;0.40;;;22.00;54.00;;;22.69;39.78;95122.09;5055720;28;20224;-78
2022/08/04 00:05:48;;;;;;;0.70;0.70;;;22.00;54.40;;;22.69;39.56;95121.28;5056695;28;20218;-78
2022/08/04 00:08:28;;;;;;;0.40;0.40;;;22.00;54.00;;;22.69;39.29;95115.94;5072898;28;20734;-78
2022/08/04 00:10:59;;;;;;;0.40;0.40;;;22.00;54.30;;;22.67;39.50;95110.84;5092176;28;20240;-78
2022/08/04 00:13:30;;;;;;;0.47;0.47;;;22.00;54.40;;;22.65;39.69;95106.84;5092669;28;20194;-78
2022/08/04 00:16:06;;;;;;;0.40;0.40;;;21.90;54.10;;;22.68;39.71;95114.34;5065064;28;20233;-78
2022/08/04 00:18:49;;;;;;;0.30;0.30;;;21.90;54.40;;;22.66;39.90;95117.25;5073963;28;20645;-78
2022/08/04 00:21:20;;;;;;;0.40;0.40;;;21.90;54.50;;;22.65;39.78;95110.31;5075634;28;20328;-78
2022/08/04 00:23:50;;;;;;;0.40;0.40;;;21.90;54.40;;;22.66;39.50;95116.47;5072988;28;20652;-78
2022/08/04 00:26:39;;;;;;;0.40;0.40;;;21.90;54.40;;;22.62;39.50;95105.50;5056145;28;20706;-78
2022/08/04 00:29:06;;;;;;;0.40;0.40;;;21.90;54.20;;;22.61;39.43;95109.22;5074468;28;20219;-78
2022/08/04 00:31:33;;;;;;;0.40;0.40;;;21.90;54.40;;;22.58;39.79;95104.41;5092266;28;20294;-77
2022/08/04 00:34:25;;;;;;;0.40;0.40;;;21.80;54.40;;;22.55;39.91;95107.59;5084447;28;20571;-78
2022/08/04 00:36:54;;;;;;;0.40;0.40;;;21.90;54.70;;;22.55;39.73;95110.28;5055674;28;20285;-78
2022/08/04 00:39:23;;;;;;;0.40;0.40;;;21.80;54.60;;;22.52;39.74;95098.25;5076266;28;20724;-78
2022/08/04 00:42:26;;;;;;;0.40;0.40;;;21.80;54.50;;;22.46;39.69;95104.66;5087505;28;20237;-78
2022/08/04 00:45:07;;;;;;;0.40;0.40;;;21.80;54.70;;;22.43;39.97;95104.38;5055182;28;20188;-78
2022/08/04 00:48:14;;;;;;;0.40;0.40;;;21.80;55.10;;;22.40;40.35;95100.34;5058676;28;20313;-78
2022/08/04 00:51:09;;;;;;;0.40;0.40;;;21.70;54.60;;;22.35;40.41;95102.94;5071105;28;20216;-78
2022/08/04 00:54:12;;;;;;;0.40;0.40;;;21.70;54.90;;;22.28;40.34;95102.41;5055329;28;20616;-78
2022/08/04 00:56:57;;;;;;;0.35;0.35;;;21.70;54.50;;;22.25;40.43;95103.72;5072096;28;20219;-78
2022/08/04 01:00:09;;;;;;;0.40;0.40;;;21.60;54.80;;;22.19;40.50;95110.09;5083880;28;20213;-78
2022/08/04 01:03:17;;;;;;;0.50;0.50;;;21.60;55.30;;;22.13;40.23;95111.97;5073985;28;20253;-78
2022/08/04 01:06:06;;;;;;;0.30;0.30;;;21.50;54.90;;;22.07;40.32;95115.69;5091759;28;20214;-78
2022/08/04 01:09:21;;;;;;;0.50;0.50;;;21.50;55.50;;;22.04;40.57;95111.63;5056743;28;20231;-78
2022/08/04 01:12:17;;;;;;;0.40;0.40;;;21.40;55.40;;;21.98;40.91;95111.88;5088375;28;20214;-78
2022/08/04 01:15:06;;;;;;;0.30;0.30;;;21.40;55.80;;;21.95;40.94;95110.53;5074163;28;20186;-78
2022/08/04 01:18:36;;;;;;;0.40;0.40;;;21.30;55.80;;;21.87;40.98;95111.03;5072060;28;20240;-78
2022/08/04 01:21:05;;;;;;;0.47;0.47;;;21.30;55.50;;;21.85;40.45;95113.94;5065047;28;20271;-78
2022/08/04 01:23:44;;;;;;;0.55;0.55;;;21.30;55.50;;;21.83;40.94;95109.94;5092974;28;20186;-78
2022/08/04 01:26:45;;;;;;;0.40;0.40;;;21.20;55.80;;;21.79;41.20;95111.50;5088662;28;20749;-79
2022/08/04 01:29:26;;;;;;;0.40;0.40;;;21.20;56.30;;;21.75;41.21;95109.34;5080626;28;20210;-78
2022/08/04 01:32:34;;;;;;;0.40;0.40;;;21.20;56.00;;;21.70;41.19;95106.66;5077683;28;20757;-78
2022/08/04 01:35:06;;;;;;;0.40;0.40;;;21.10;56.40;;;21.70;41.19;95109.34;5073959;28;20197;-78
2022/08/04 01:38:04;;;;;;;0.40;0.40;;;21.10;55.90;;;21.68;41.41;95107.94;5089209;28;20246;-78
2022/08/04 01:40:58;;;;;;;0.40;0.40;;;21.10;56.10;;;21.64;41.24;95106.88;5080649;28;20249;-78
2022/08/04 01:43:29;;;;;;;0.40;0.40;;;21.00;56.60;;;21.63;41.08;95106.06;5075597;28;20202;-78
2022/08/04 01:46:03;;;;;;;0.50;0.50;;;21.00;56.50;;;21.59;41.23;95113.78;5077838;28;20231;-78
2022/08/04 01:48:31;;;;;;;0.40;0.40;;;21.00;56.90;;;21.55;41.37;95099.31;5072255;28;20289;-78
2022/08/04 01:51:07;;;;;;;0.40;0.40;;;20.90;56.40;;;21.55;41.99;95101.97;5077415;28;20685;-77
2022/08/04 01:53:42;;;;;;;0.45;0.45;;;20.90;56.90;;;21.52;41.91;95109.69;5077387;28;20197;-78
2022/08/04 01:56:11;;;;;;;0.40;0.40;;;20.90;56.80;;;21.50;41.84;95106.50;5077040;28;20406;-78
2022/08/04 01:58:40;;;;;;;0.40;0.40;;;20.90;56.80;;;21.48;41.49;95113.94;5076782;28;20198;-77
2022/08/04 02:01:12;;;;;;;0.50;0.50;;;20.80;56.90;;;21.42;42.23;95102.41;5090842;28;20222;-78
2022/08/04 02:03:43;;;;;;;0.40;0.40;;;20.80;57.10;;;21.42;41.90;95113.09;5074346;28;20207;-78
2022/08/04 02:06:59;;;;;;;0.50;0.50;;;20.80;57.10;;;21.38;42.22;95114.66;5093530;28;20221;-78
2022/08/04 02:10:14;;;;;;;0.50;0.50;;;20.80;57.40;;;21.35;42.01;95105.31;5093459;28;20333;-76
2022/08/04 02:12:50;;;;;;;0.30;0.30;;;20.80;57.10;;;21.28;41.87;95100.16;5055078;28;20223;-77
2022/08/04 02:15:57;;;;;;;0.40;0.40;;;20.70;56.90;;;21.22;42.35;95098.53;5073563;28;20195;-77
2022/08/04 02:19:01;;;;;;;0.40;0.40;;;20.70;57.50;;;21.19;42.61;95101.72;5057260;28;20198;-77
2022/08/04 02:21:30;;;;;;;0.50;0.50;;;20.70;57.80;;;21.13;42.45;95093.91;5093155;28;20217;-77
2022/08/04 02:24:15;;;;;;;0.40;0.40;;;20.60;57.60;;;21.11;42.71;95096.84;5079325;28;20243;-78
2022/08/04 02:26:49;;;;;;;0.40;0.40;;;20.60;58.30;;;21.07;42.74;95098.41;5094687;28;20214;-78
2022/08/04 02:29:24;;;;;;;0.50;0.50;;;20.50;58.20;;;21.03;42.60;95091.97;5073748;28;20222;-78
2022/08/04 02:32:07;;;;;;;0.40;0.40;;;20.50;58.10;;;20.99;43.06;95097.00;5089470;28;20763;-77
2022/08/04 02:35:02;;;;;;;0.40;0.40;;;20.50;58.70;;;20.94;43.32;95096.97;5077620;28;20728;-77
2022/08/04 02:37:34;;;;;;;0.50;0.50;;;20.40;58.10;;;20.93;43.09;95092.69;5085177;28;20768;-78
2022/08/04 02:40:05;;;;;;;0.47;0.47;;;20.40;58.30;;;20.90;43.31;95090.53;5069896;28;20566;-77
2022/08/04 02:42:33;;;;;;;0.50;0.50;;;20.30;58.80;;;20.88;43.38;95085.44;5094594;28;20580;-78
2022/08/04 02:45:04;;;;;;;0.50;0.50;;;20.30;58.20;;;20.86;43.63;95084.06;5092092;28;20190;-78
2022/08/04 02:47:32;;;;;;;0.40;0.40;;;20.30;58.60;;;20.85;43.36;95080.63;5071887;28;20215;-77
2022/08/04 02:50:20;;;;;;;0.40;0.40;;;20.30;58.50;;;20.83;42.96;95076.59;5078125;28;20198;-77
2022/08/04 02:52:59;;;;;;;0.40;0.40;;;20.20;58.50;;;20.79;43.75;95069.09;5077341;28;20201;-75
2022/08/04 02:55:29;;;;;;;0.40;0.40;;;20.20;58.80;;;20.76;43.47;95066.94;5077312;28;20194;-77
2022/08/04 02:57:58;;;;;;;0.40;0.40;;;20.20;59.10;;;20.76;43.62;95066.13;5092864;28;20198;-76
2022/08/04 03:00:26;;;;;;;0.40;0.40;;;20.20;59.20;;;20.74;43.87;95074.38;5093814;28;20190;-77
2022/08/04 03:03:25;;;;;;;0.40;0.40;;;20.10;59.10;;;20.72;43.67;95071.16;5077101;28;20194;-77
2022/08/04 03:06:08;;;;;;;0.40;0.40;;;20.10;59.60;;;20.67;43.83;95076.41;5070730;28;20604;-77
2022/08/04 03:09:10;;;;;;;0.50;0.50;;;20.10;59.80;;;20.62;44.00;95071.81;5077184;28;20222;-77
2022/08/04 03:12:14;;;;;;;0.50;0.50;;;20.10;59.60;;;20.57;44.11;95068.31;5093699;28;20214;-77
2022/08/04 03:15:24;;;;;;;0.40;0.40;;;20.10;59.50;;;20.55;44.13;95073.09;5086059;28;20190;-77
2022/08/04 03:18:26;;;;;;;0.45;0.45;;;20.00;59.30;;;20.49;44.37;95072.22;5068418;28;20206;-77
2022/08/04 03:21:21;;;;;;;0.50;0.50;;;20.00;59.10;;;20.47;43.89;95074.34;5083861;28;20673;-83
2022/08/04 03:24:13;;;;;;;0.47;0.47;;;20.00;60.00;;;20.45;44.38;95082.56;5085362;28;20190;-77
2022/08/04 03:27:37;;;;;;;0.50;0.50;;;19.90;60.10;;;20.39;44.28;95080.13;5083638;28;20678;-84
2022/08/04 03:30:10;;;;;;;0.50;0.50;;;19.90;59.80;;;20.38;44.27;95068.63;5082538;28;20671;-77
2022/08/04 03:33:06;;;;;;;0.50;0.50;;;19.80;59.60;;;20.35;44.49;95074.47;5080822;28;20748;-77
2022/08/04 03:36:22;;;;;;;0.50;0.50;;;19.80;60.00;;;20.31;44.35;95068.84;5084175;28;20212;-77
2022/08/04 03:39:43;;;;;;;0.50;0.50;;;19.80;59.90;;;20.28;44.24;95072.00;5081810;28;20191;-77
2022/08/04 03:42:41;;;;;;;0.50;0.50;;;19.80;60.20;;;20.27;44.82;95077.59;5074415;28;20241;-76
2022/08/04 03:45:35;;;;;;;0.40;0.40;;;19.70;60.30;;;20.23;44.52;95077.28;5082279;28;20198;-77
2022/08/04 03:48:43;;;;;;;0.50;0.50;;;19.70;60.10;;;20.19;44.47;95081.50;5082980;28;20236;-77
2022/08/04 03:55:08;;;;;;;0.50;0.50;;;19.60;60.70;;;20.14;44.61;95082.22;5085498;28;20187;-77
2022/08/04 03:57:46;;;;;;;0.50;0.50;;;19.60;60.40;;;20.15;45.35;95073.19;5083015;28;20301;-77
2022/08/04 04:00:25;;;;;;;0.50;0.50;;;19.60;60.80;;;20.15;45.17;95077.69;5085963;28;20835;-77
2022/08/04 04:03:23;;;;;;;0.40;0.40;;;19.60;60.90;;;20.17;45.18;95080.94;5068192;28;20569;-77
2022/08/04 04:06:43;;;;;;;0.50;0.50;;;19.60;60.90;;;20.16;45.18;95076.66;5084801;28;20222;-77
2022/08/04 04:09:37;;;;;;;0.40;0.40;;;19.60;60.90;;;20.18;45.57;95079.06;5090576;28;20310;-77
2022/08/04 04:13:13;;;;;;;0.40;0.40;;;19.60;61.20;;;20.16;45.35;95066.00;5068240;28;20267;-77
2022/08/04 04:16:13;;;;;;;0.40;0.40;;;19.60;61.70;;;20.20;45.33;95068.97;5071268;28;20250;-80
2022/08/04 04:19:21;;;;;;;0.40;0.40;;;19.70;61.50;;;20.24;46.16;95067.44;5089935;28;20189;-80
2022/08/04 04:22:35;;;;;;;0.47;0.47;;;19.70;61.60;;;20.27;45.53;95061.59;5073551;28;20605;-80
2022/08/04 04:25:42;;;;;;;0.50;0.50;;;19.70;61.30;;;20.30;45.65;95071.78;5089718;28;20307;-79
2022/08/04 04:28:34;;;;;;;0.50;0.50;;;19.80;61.50;;;20.35;46.33;95069.16;5090053;28;20290;-79
2022/08/04 04:31:42;;;;;;;0.40;0.40;;;19.80;61.60;;;20.42;46.39;95074.28;5090946;28;20221;-79
2022/08/04 04:34:43;;;;;;;0.40;0.40;;;19.80;61.30;;;20.47;46.48;95083.13;5092397;28;20190;-76
2022/08/04 04:37:33;;;;;;;0.50;0.50;;;19.90;62.00;;;20.55;46.44;95081.88;5087537;28;20266;-79
2022/08/04 04:40:31;;;;;;;0.50;0.50;;;20.00;61.80;;;20.60;46.46;95076.63;5091528;28;20213;-79
2022/08/04 04:43:37;;;;;;;0.40;0.40;;;20.00;62.10;;;20.68;46.30;95078.03;5070990;28;20245;-80
2022/08/04 04:46:42;;;;;;;0.50;0.50;;;20.10;62.00;;;20.75;46.38;95083.16;5082958;28;20214;-78
2022/08/04 04:49:33;;;;;;;0.50;0.50;;;20.20;62.30;;;20.83;46.96;95089.94;5087507;28;20217;-79
2022/08/04 04:52:37;;;;;;;0.40;0.40;;;20.30;62.40;;;20.90;46.76;95090.53;5075167;28;20516;-78
2022/08/04 04:55:25;;;;;;;0.50;0.50;;;20.40;62.40;;;20.97;46.86;95085.81;5092067;28;20192;-78
2022/08/04 04:57:57;;;;;;;0.40;0.40;;;20.50;62.50;;;21.07;46.55;95090.41;5049815;28;20205;-78
2022/08/04 05:00:54;;;;;;;0.40;0.40;;;20.50;62.50;;;21.16;47.22;95090.75;5090472;28;20277;-78
2022/08/04 05:03:47;;;;;;;0.40;0.40;;;20.60;62.60;;;21.25;47.25;95091.88;5073909;28;20212;-76
2022/08/04 05:06:48;;;;;;;0.50;0.50;;;20.70;62.40;;;21.34;47.19;95092.22;5091637;28;20226;-77
2022/08/04 05:10:01;;;;;;;0.60;0.60;;;20.80;62.80;;;21.43;46.57;95091.50;5085566;28;20226;-85
2022/08/04 05:13:01;;;;;;;0.40;0.40;;;20.90;62.80;;;21.53;46.85;95090.78;5068647;28;20218;-79
2022/08/04 05:15:52;;;;;;;0.40;0.40;;;21.00;62.60;;;21.63;46.86;95084.72;5075623;28;20716;-76
2022/08/04 05:18:27;;;;;;;0.40;0.40;;;21.10;62.70;;;21.74;46.94;95094.41;5091441;28;20229;-76
2022/08/04 05:21:35;;;;;;;0.40;0.40;;;21.20;62.60;;;21.85;47.29;95089.91;5072749;28;20230;-79
2022/08/04 05:24:08;;;;;;;0.40;0.40;;;21.30;62.40;;;21.98;47.07;95093.97;5074580;28;20229;-79
2022/08/04 05:26:44;;;;;;;0.40;0.40;;;21.40;62.60;;;22.09;47.39;95094.84;5073511;28;20628;-77
2022/08/04 05:29:21;;;;;;;0.40;0.40;;;21.50;62.70;;;22.21;47.17;95099.97;5073495;28;20289;-77
2022/08/04 05:32:01;;;;;;;0.40;0.40;;;21.60;62.50;;;22.31;46.78;95093.88;5075989;28;20703;-88
2022/08/04 05:34:37;;;;;;;0.52;0.52;;;21.70;62.30;;;22.42;46.78;95098.19;5067690;28;20312;-77
2022/08/04 05:37:11;;;;;;;0.30;0.30;;;21.80;62.40;;;22.51;46.67;95093.19;5070270;28;20207;-76
2022/08/04 05:40:08;;;;;;;0.40;0.40;;;21.90;62.40;;;22.60;46.76;95090.78;5071003;28;20296;-77
2022/08/04 05:42:38;;;;;;;0.50;0.50;;;22.00;61.90;;;22.71;46.87;95095.09;5038608;28;20235;-79
2022/08/04 05:45:08;;;;;;;0.43;0.43;;;22.10;62.20;;;22.80;46.34;95095.38;5055491;28;20754;-85
2022/08/04 05:47:36;;;;;;;0.40;0.40;;;22.20;62.20;;;22.91;46.82;95104.22;5061500;28;20325;-87
2022/08/04 05:50:06;;;;;;;0.40;0.40;;;22.30;62.10;;;22.97;46.49;95095.13;5093537;28;20214;-88
2022/08/04 05:52:36;;;;;;;0.40;0.40;;;22.40;62.20;;;23.08;46.94;95104.75;5054922;28;20678;-88
2022/08/04 05:55:04;;;;;;;0.40;0.40;;;22.50;62.20;;;23.16;46.89;95098.91;5069423;28;20298;-85
2022/08/04 05:57:32;;;;;;;0.30;0.30;;;22.60;61.90;;;23.23;46.38;95089.81;5062761;28;20206;-87
2022/08/04 06:00:04;;;;;;;0.40;0.40;;;22.70;62.60;;;23.38;46.35;95097.06;5063519;28;20320;-84
2022/08/04 06:02:53;;;;;;;0.40;0.40;;;22.80;61.80;;;23.48;46.13;95100.50;5056905;28;20194;-86
2022/08/04 06:05:22;;;;;;;0.40;0.40;;;22.90;61.50;;;23.56;45.90;95099.19;5063414;28;20194;-86
2022/08/04 06:07:49;;;;;;;0.35;0.35;;;23.00;61.40;;;23.67;45.64;95105.34;5076759;28;20207;-87
2022/08/04 06:10:38;;;;;;;0.60;0.60;;;23.10;61.40;;;23.76;45.35;95098.34;5088089;28;20222;-86
2022/08/04 06:13:16;;;;;;;0.30;0.30;;;23.20;61.10;;;23.88;45.25;95102.63;5094356;28;20255;-87
2022/08/04 06:16:07;;;;;;;0.40;0.40;;;23.30;61.00;;;23.97;45.50;95115.22;5082132;28;20214;-87
2022/08/04 06:18:56;;;;;;;0.50;0.50;;;23.40;61.00;;;24.08;45.32;95107.13;5079039;28;20207;-87
2022/08/04 06:21:49;;;;;;;0.30;0.30;;;23.50;60.70;;;24.18;45.03;95109.81;5068765;28;20236;-86
2022/08/04 06:24:21;;;;;;;0.50;0.50;;;23.70;60.70;;;24.26;44.78;95101.16;5092707;28;20229;-87
2022/08/04 06:26:51;;;;;;;0.50;0.50;;;23.70;60.60;;;24.32;44.71;95090.44;5074258;28;20218;-86
2022/08/04 06:29:34;;;;;;;0.40;0.40;;;23.80;60.50;;;24.45;44.91;95093.34;5077090;28;20258;-87
2022/08/04 06:35:04;;;;;;;0.40;0.40;;;24.00;60.40;;;24.62;44.73;95094.88;5081466;28;20210;-88
2022/08/04 06:37:33;;;;;;;0.40;0.40;;;24.10;60.40;;;24.64;44.04;95091.91;5086191;28;20226;-88
2022/08/04 06:40:12;;;;;;;0.30;0.30;;;24.20;60.30;;;24.78;44.33;95096.41;5066484;28;20197;-87
2022/08/04 06:43:00;;;;;;;0.30;0.30;;;24.30;60.20;;;24.87;44.49;95090.47;5075898;28;20272;-78
2022/08/04 06:45:29;;;;;;;0.40;0.40;;;24.40;60.20;;;24.94;44.22;95099.78;5088143;28;20232;-88
2022/08/04 06:47:57;;;;;;;0.30;0.30;;;24.40;59.90;;;24.98;44.11;95093.88;5063190;28;20199;-88
2022/08/04 06:50:26;;;;;;;0.30;0.30;;;24.50;60.00;;;25.11;43.99;95101.31;5082401;28;20240;-88
2022/08/04 06:53:13;;;;;;;0.30;0.30;;;24.60;60.10;;;25.18;44.07;95087.53;5102433;27;20209;-88
2022/08/04 06:55:45;;;;;;;0.30;0.30;;;24.70;60.00;;;25.28;43.75;95097.41;5062752;28;20216;-86
2022/08/04 06:58:14;;;;;;;0.35;0.35;;;24.80;59.70;;;25.36;43.97;95094.91;5083595;28;20222;-78
2022/08/04 07:00:43;;;;;;;0.30;0.30;;;24.90;59.60;;;25.43;43.83;95094.63;5094714;28;20218;-80
2022/08/04 07:03:11;;;;;;;0.40;0.40;;;24.90;59.80;;;25.51;43.76;95094.03;5108745;27;20528;-79
2022/08/04 07:05:40;;;;;;;0.40;0.40;;;25.00;59.70;;;25.57;43.90;95092.91;5081695;28;20214;-78
2022/08/04 07:08:10;;;;;;;0.50;0.50;;;25.10;59.80;;;25.68;43.83;95092.78;5096387;28;20298;-78
2022/08/04 07:10:38;;;;;;;0.30;0.30;;;25.20;59.30;;;25.75;43.69;95087.09;5114513;27;20224;-77
2022/08/04 07:13:06;;;;;;;0.30;0.30;;;25.30;59.50;;;25.83;43.99;95081.91;5072528;28;20186;-78
2022/08/04 07:15:35;;;;;;;0.35;0.35;;;25.40;59.90;;;25.96;43.71;95088.47;5062973;28;20478;-77
2022/08/04 07:18:03;;;;;;;0.38;0.38;;;25.50;59.40;;;26.07;43.34;95107.22;5078882;28;20195;-78
2022/08/04 07:20:32;;;;;;;0.50;0.50;;;25.50;59.30;;;26.13;43.37;95093.41;5093232;28;20217;-79
2022/08/04 07:23:04;;;;;;;0.40;0.40;;;25.70;59.50;;;26.25;42.94;95089.53;5079464;28;20196;-78
2022/08/04 07:25:35;;;;;;;0.30;0.30;;;25.70;58.80;;;26.40;43.17;95104.69;5063537;28;20241;-79
2022/08/04 07:28:28;;;;;;;0.35;0.35;;;25.90;58.20;;;26.50;42.59;95097.28;5083650;28;20269;-76
2022/08/04 07:30:57;;;;;;;0.30;0.30;;;26.00;58.20;;;26.61;42.26;95097.97;5094464;28;20724;-78
2022/08/04 07:33:27;;;;;;;0.30;0.30;;;26.10;57.90;;;26.72;42.41;95101.31;5070975;28;20209;-77
2022/08/04 07:35:56;;;;;;;0.40;0.40;;;26.20;58.10;;;26.82;42.37;95093.13;5101647;27;20203;-76
2022/08/04 07:38:41;;;;;;;0.30;0.30;;;26.30;57.80;;;26.94;42.28;95095.38;5071716;28;20280;-77
2022/08/04 07:41:23;;;;;;;0.30;0.30;;;26.40;57.60;;;27.04;41.65;95091.75;5077319;28;20216;-77
2022/08/04 07:44:08;;;;;;;0.20;0.20;;;26.50;57.20;;;27.17;41.58;95093.69;5080399;28;20200;-78
2022/08/04 07:46:36;;;;;;;0.30;0.30;;;26.60;57.00;;;27.28;41.65;95094.34;5085499;28;20215;-78
2022/08/04 07:49:05;;;;;;;0.30;0.30;;;26.70;56.90;;;27.38;41.15;95095.25;5078523;28;20193;-77
2022/08/04 07:51:35;;;;;;;0.30;0.30;;;26.80;56.70;;;27.48;41.32;95090.53;5100314;28;20577;-77
2022/08/04 07:54:08;;;;;;;0.20;0.20;;;26.90;56.70;;;27.55;41.05;95087.47;5086866;28;20198;-77
2022/08/04 07:56:39;;;;;;;0.30;0.30;;;27.10;56.20;;;27.66;40.76;95088.09;5066168;28;20243;-78
2022/08/04 07:59:06;;;;;;;0.30;0.30;;;27.20;55.90;;;27.76;40.58;95095.19;5058789;28;20202;-77
2022/08/04 08:01:36;;;;;;;0.20;0.20;;;27.30;55.90;;;27.86;40.20;95091.50;5084859;28;20232;-79
2022/08/04 08:04:09;;;;;;;0.22;0.22;;;27.30;55.60;;;27.94;40.33;95096.19;5076458;28;20205;-79
2022/08/04 08:06:39;;;;;;;0.30;0.30;;;27.40;55.20;;;28.02;40.04;95092.81;5084577;28;20308;-78
2022/08/04 08:09:15;;;;;;;0.20;0.20;;;27.50;55.00;;;28.10;39.35;95088.66;5103482;28;20225;-79
2022/08/04 08:11:46;;;;;;;0.20;0.20;;;27.60;54.40;;;28.18;39.63;95085.25;5099423;28;20216;-77
2022/08/04 08:14:35;;;;;;;0.30;0.30;;;27.70;54.20;;;28.29;39.38;95085.84;5053378;28;20226;-78
2022/08/04 08:17:04;;;;;;;0.22;0.22;;;27.80;54.40;;;28.37;39.21;95092.44;5046343;28;20221;-78
2022/08/04 08:19:33;;;;;;;0.20;0.20;;;27.90;54.00;;;28.45;38.20;95091.72;5066874;28;20202;-79
2022/08/04 08:22:01;;;;;;;0.30;0.30;;;27.90;53.30;;;28.56;38.85;95089.63;5066900;28;20219;-79
2022/08/04 08:24:33;;;;;;;0.30;0.30;;;28.00;53.10;;;28.65;37.97;95089.69;5080765;28;20223;-78
2022/08/04 08:27:05;;;;;;;0.30;0.30;;;28.10;53.10;;;28.71;38.34;95077.72;5065586;28;20296;-78
2022/08/04 08:29:36;;;;;;;0.30;0.30;;;28.20;53.00;;;28.73;38.07;95064.72;5073705;28;20222;-79
2022/08/04 08:32:12;;;;;;;0.30;0.30;;;28.30;52.90;;;28.87;37.65;95080.91;5068566;28;20211;-78
2022/08/04 08:34:42;;;;;;;0.30;0.30;;;28.40;52.50;;;28.94;38.14;95072.38;5068781;28;20200;-77
2022/08/04 08:37:40;;;;;;;0.25;0.25;;;28.40;52.10;;;28.99;37.66;95077.66;5068491;28;20715;-78
2022/08/04 08:40:26;;;;;;;0.30;0.30;;;28.50;52.40;;;29.06;37.46;95075.31;5080434;28;20687;-88
2022/08/04 08:43:39;;;;;;;0.20;0.20;;;28.60;52.10;;;29.12;37.32;95087.59;5069015;28;20193;-85
2022/08/04 08:46:54;;;;;;;0.30;0.30;;;28.70;52.20;;;29.19;37.67;95074.47;5069751;28;20221;-88
2022/08/04 08:50:16;;;;;;;0.20;0.20;;;28.80;51.80;;;29.25;37.10;95077.84;5061392;28;20266;-87
2022/08/04 08:53:26;;;;;;;0.20;0.20;;;28.80;51.80;;;29.32;36.78;95078.25;5078664;28;20243;-86
2022/08/04 08:56:50;;;;;;;0.20;0.20;;;28.90;51.40;;;29.37;36.35;95080.03;5083038;28;20309;-88
2022/08/04 09:00:04;;;;;;;0.30;0.30;;;29.00;50.40;;;29.44;36.21;95068.78;5086672;28;20187;-78
2022/08/04 09:03:09;;;;;;;0.30;0.30;;;29.00;50.40;;;29.51;35.53;95079.94;5090334;28;20450;-78
2022/08/04 09:06:25;;;;;;;0.30;0.30;;;29.10;49.40;;;29.55;34.20;95086.31;5079493;28;20195;-79
2022/08/04 09:09:39;;;;;;;0.30;0.30;;;29.20;48.90;;;29.60;34.50;95086.22;5070499;28;20520;-79
2022/08/04 09:12:46;;;;;;;0.30;0.30;;;29.20;48.90;;;29.65;34.95;95088.78;5108868;27;20256;-87
2022/08/04 09:15:56;;;;;;;0.30;0.30;;;29.30;48.50;;;29.74;34.65;95085.34;5060280;28;20205;-79
2022/08/04 09:18:39;;;;;;;0.30;0.30;;;29.30;48.60;;;29.82;34.36;95082.66;5078160;28;20214;-78
2022/08/04 09:21:13;;;;;;;0.20;0.20;;;29.40;48.50;;;29.88;34.06;95086.00;5082205;28;20242;-79
2022/08/04 09:23:46;;;;;;;0.30;0.30;;;29.40;47.70;;;29.94;33.69;95078.59;5064826;28;20198;-79
2022/08/04 09:26:53;;;;;;;0.30;0.30;;;29.50;47.70;;;29.96;33.68;95085.28;5096770;28;20211;-78
2022/08/04 09:29:38;;;;;;;0.30;0.30;;;29.60;47.80;;;30.01;33.67;95078.97;5062344;28;20740;-79
2022/08/04 09:32:58;;;;;;;0.30;0.30;;;29.60;47.70;;;30.00;34.18;95071.94;5084507;28;20239;-80
2022/08/04 09:35:58;;;;;;;0.30;0.30;;;29.70;48.10;;;30.07;33.22;95072.28;5096761;28;20552;-80
2022/08/04 09:39:01;;;;;;;0.30;0.30;;;29.70;46.80;;;30.13;33.31;95079.16;5065566;28;20221;-87
2022/08/04 09:42:11;;;;;;;0.20;0.20;;;29.70;46.80;;;30.18;34.22;95075.53;5083069;28;20310;-80
2022/08/04 09:45:11;;;;;;;0.30;0.30;;;29.80;46.90;;;30.23;33.59;95069.16;5079910;28;20711;-81
2022/08/04 09:48:06;;;;;;;0.20;0.20;;;29.90;47.10;;;30.32;33.63;95069.97;5082435;28;20198;-79
2022/08/04 09:50:44;;;;;;;0.30;0.30;;;29.90;46.90;;;30.37;33.39;95066.34;5073415;28;20222;-87
2022/08/04 09:53:53;;;;;;;0.20;0.20;;;30.00;47.00;;;30.41;33.36;95067.31;5075460;28;20195;-86
2022/08/04 09:56:40;;;;;;;0.20;0.20;;;30.00;47.00;;;30.42;33.04;95061.59;5064342;28;20218;-88
2022/08/04 09:59:10;;;;;;;0.20;0.20;;;30.10;47.10;;;30.50;32.55;95078.97;5115897;27;20188;-88
2022/08/04 10:01:42;;;;;;;0.30;0.30;;;30.10;46.60;;;30.54;32.84;95071.84;5083873;28;20216;-87
2022/08/04 10:04:13;;;;;;;0.30;0.30;;;30.10;47.70;;;30.62;32.80;95064.81;5084689;28;20199;-79
2022/08/04 10:07:06;;;;;;;0.28;0.28;;;30.20;46.30;;;30.66;33.04;95069.28;5067367;28;20225;-80
2022/08/04 10:09:52;;;;;;;0.20;0.20;;;30.20;47.20;;;30.71;32.73;95072.94;5086417;28;20238;-80
2022/08/04 10:12:49;;;;;;;0.30;0.30;;;30.30;46.20;;;30.78;32.07;95065.16;5108763;27;20235;-79
2022/08/04 10:15:44;;;;;;;0.30;0.30;;;30.30;45.80;;;30.81;31.70;95057.19;5088600;28;20600;-80
2022/08/04 10:18:55;;;;;;;0.20;0.20;;;30.40;45.40;;;30.87;32.52;95060.56;5082219;28;20646;-80
2022/08/04 10:21:39;;;;;;;0.30;0.30;;;30.50;45.90;;;30.94;31.77;95066.25;5100220;28;20274;-88
2022/08/04 10:25:03;;;;;;;0.40;0.40;;;30.50;45.30;;;31.00;32.10;95049.88;5073921;28;20204;-79
2022/08/04 10:27:58;;;;;;;0.40;0.40;;;30.60;45.10;;;31.04;31.07;95059.75;5081760;28;20295;-80
2022/08/04 10:30:27;;;;;;;0.30;0.30;;;30.70;44.60;;;31.11;31.51;95057.38;5065682;28;20227;-80
2022/08/04 10:33:11;;;;;;;0.38;0.38;;;30.70;44.40;;;31.14;31.24;95059.44;5078539;28;20192;-78
2022/08/04 10:35:53;;;;;;;0.30;0.30;;;30.70;43.90;;;31.18;30.27;95058.81;5073015;28;20233;-79
2022/08/04 10:38:29;;;;;;;0.30;0.30;;;30.80;44.00;;;31.22;30.19;95048.94;5078741;28;20297;-79
2022/08/04 10:41:12;;;;;;;0.20;0.20;;;30.80;43.30;;;31.26;30.91;95058.00;5084946;28;20265;-78
2022/08/04 10:44:01;;;;;;;0.30;0.30;;;30.80;43.60;;;31.29;30.73;95054.66;5103873;28;20212;-79
2022/08/04 10:46:55;;;;;;;0.25;0.25;;;30.90;43.30;;;31.33;29.52;95050.19;5090018;28;20560;-78
2022/08/04 10:49:37;;;;;;;0.22;0.22;;;30.90;42.40;;;31.37;29.35;95045.72;5050853;28;20607;-78
2022/08/04 10:52:16;;;;;;;0.32;0.32;;;31.00;42.70;;;31.40;29.93;95047.00;5069699;28;20217;-77
2022/08/04 10:55:10;;;;;;;0.20;0.20;;;30.90;42.10;;;31.44;29.60;95051.44;5072076;28;20198;-79
2022/08/04 10:57:47;;;;;;;0.30;0.30;;;31.00;42.90;;;31.50;30.24;95041.22;5059456;28;20240;-78
2022/08/04 11:00:23;;;;;;;0.30;0.30;;;31.00;42.70;;;31.57;30.07;95044.22;5063261;28;20752;-78
2022/08/04 11:03:04;;;;;;;0.32;0.32;;;31.10;42.70;;;31.64;29.34;95037.50;5078431;28;20214;-79
2022/08/04 11:05:53;;;;;;;0.20;0.20;;;31.20;42.30;;;31.68;29.66;95046.63;5090366;28;20211;-79
2022/08/04 11:08:44;;;;;;;0.30;0.30;;;31.30;42.40;;;31.69;28.52;95040.06;5079174;28;20201;-79
2022/08/04 11:11:24;;;;;;;0.20;0.20;;;31.30;41.20;;;31.74;28.48;95032.56;5072946;28;20293;-78
2022/08/04 11:14:07;;;;;;;0.30;0.30;;;31.30;41.10;;;31.80;28.19;95040.50;5065697;28;20251;-78
2022/08/04 11:16:43;;;;;;;0.20;0.20;;;31.40;40.80;;;31.83;28.69;95043.38;5083144;28;20259;-78
2022/08/04 11:19:59;;;;;;;0.20;0.20;;;31.40;40.70;;;31.84;29.02;95031.41;5088712;28;20263;-79
2022/08/04 11:22:56;;;;;;;0.30;0.30;;;31.40;41.50;;;31.91;29.15;95036.34;5072060;28;20201;-79
2022/08/04 11:25:28;;;;;;;0.20;0.20;;;31.50;41.20;;;31.95;28.77;95034.56;5091890;28;20274;-80
2022/08/04 11:28:22;;;;;;;0.32;0.32;;;31.60;40.90;;;31.97;28.25;95036.94;5072103;28;20205;-78
2022/08/04 11:31:12;;;;;;;0.30;0.30;;;31.60;41.20;;;31.94;28.71;95019.41;5074495;28;20262;-79
2022/08/04 11:33:51;;;;;;;0.20;0.20;;;31.60;40.90;;;32.02;28.67;95024.00;5069157;28;20233;-79
2022/08/04 11:36:35;;;;;;;0.40;0.40;;;31.60;40.70;;;32.08;29.18;95021.91;5069100;28;20219;-79
2022/08/04 11:39:19;;;;;;;0.20;0.20;;;31.70;41.40;;;32.13;28.30;95021.69;5067957;28;20233;-79
2022/08/04 11:42:26;;;;;;;0.30;0.30;;;31.70;41.00;;;32.17;28.90;95022.63;5097863;28;20218;-79
2022/08/04 11:45:03;;;;;;;0.28;0.28;;;31.80;41.00;;;32.23;28.14;95023.28;5072165;28;20202;-79